Hlavní strana
METAR-TAF:

METAR-TAF

Letiště :

Halmstad, Švédsko

zeměpisná šířka: 56-41N, zeměpisná délka: 012-50E, výška: 30 m

Aktuální stav počasí

Zpráva byla vytvořena před 18 minutami, v 11:50 UTC
Východojihovýchodní vítr 17 kt s nárazy do 31 kt, proměnlivý mezi východním a jihojihovýchodním
Teplota 18°C
Vlhkost vzduchu 20%
Tlak 1020 hPa
Viditelnost 10 km a více
Žádná oblačnost pod 1500 m, nevyskytují se cumulonimby.

METAR: ESMT 231150Z 12017G31KT 080V150 CAVOK 18/M05 Q1020

Čas: 14:08 (12:08 UTC)

Předpověď počasí

Zpráva byla vytvořena před 1 hodinou a 4 minutami, v 11:04 UTC
Předpověď platná od 23 v 12 UTC do 23 v 19 UTC
Východojihovýchodní vítr 15 kt s nárazy do 25 kt
Viditelnost 10 km a více
Žádná oblačnost pod 1500 m, nevyskytují se cumulonimby.
Dočasný
od 23 v 12 UTC do 23 v 16 UTC
Východojihovýchodní vítr 25 kt s nárazy do 35 kt

TAF: ESMT 231104Z 2312/2319 12015G25KT CAVOK TEMPO 2312/2316 11025G35KT

Stav a předpovědi počasí z více než 4 000 letišť (zprávy METAR a TAF).

Červené a žluté tečky na mapě představují dostupné meteorologické stanice.

Když kurzor umístíte na tečku, zobrazí se název stanice.

Pak kliknutím zobrazíte stav a předpověď počasí.

Chcete-li změnit mapu, kliknutím na zelené tlačítko se znaménkem +mapu přiblížíte, kliknutím na zelené tlačítko se znaménkem – mapu oddálíte a kliknutím na zelené šipky přejdete na sousední mapy.


METAR-TAF: